sensor_id;sensor_type;location;lat;lon;timestamp;pressure;altitude;pressure_sealevel;temperature;humidity
28428;BME280;15662;49.128;8.520;2023-02-19T00:01:48;101046.28;;;15.51;50.24
28428;BME280;15662;49.128;8.520;2023-02-19T00:04:18;101048.75;;;15.57;50.26
28428;BME280;15662;49.128;8.520;2023-02-19T00:06:48;101061.34;;;15.53;50.36
28428;BME280;15662;49.128;8.520;2023-02-19T00:09:18;101070.22;;;15.54;50.46
28428;BME280;15662;49.128;8.520;2023-02-19T00:11:47;101067.78;;;15.47;50.51
28428;BME280;15662;49.128;8.520;2023-02-19T00:14:18;101057.94;;;15.48;50.53
28428;BME280;15662;49.128;8.520;2023-02-19T00:16:47;101063.31;;;15.48;50.65
28428;BME280;15662;49.128;8.520;2023-02-19T00:19:19;101048.22;;;15.45;50.68
28428;BME280;15662;49.128;8.520;2023-02-19T00:21:50;101033.91;;;15.48;50.58
28428;BME280;15662;49.128;8.520;2023-02-19T00:24:20;101020.59;;;15.46;50.83
28428;BME280;15662;49.128;8.520;2023-02-19T00:26:48;101034.00;;;15.45;50.63
28428;BME280;15662;49.128;8.520;2023-02-19T00:29:19;101033.03;;;15.47;50.61
28428;BME280;15662;49.128;8.520;2023-02-19T00:31:47;101040.94;;;15.51;50.71
28428;BME280;15662;49.128;8.520;2023-02-19T00:34:15;101036.53;;;15.49;50.53
28428;BME280;15662;49.128;8.520;2023-02-19T00:36:43;101039.19;;;15.49;50.71
28428;BME280;15662;49.128;8.520;2023-02-19T00:39:15;101038.38;;;15.47;50.63
28428;BME280;15662;49.128;8.520;2023-02-19T00:41:45;101041.94;;;15.48;50.77
28428;BME280;15662;49.128;8.520;2023-02-19T00:44:14;101037.38;;;15.50;50.71
28428;BME280;15662;49.128;8.520;2023-02-19T00:46:44;101024.72;;;15.55;50.69
28428;BME280;15662;49.128;8.520;2023-02-19T00:49:20;101024.88;;;15.52;50.69
28428;BME280;15662;49.128;8.520;2023-02-19T00:51:50;101035.56;;;15.52;50.80
28428;BME280;15662;49.128;8.520;2023-02-19T00:54:19;101041.84;;;15.49;50.99
28428;BME280;15662;49.128;8.520;2023-02-19T00:56:50;101059.69;;;15.49;50.94
28428;BME280;15662;49.128;8.520;2023-02-19T00:59:18;101057.94;;;15.48;51.05
28428;BME280;15662;49.128;8.520;2023-02-19T01:01:46;101046.50;;;15.44;50.93
28428;BME280;15662;49.128;8.520;2023-02-19T01:04:13;101044.63;;;15.46;51.07
28428;BME280;15662;49.128;8.520;2023-02-19T01:06:45;101032.19;;;15.45;51.21
28428;BME280;15662;49.128;8.520;2023-02-19T01:09:15;101017.38;;;15.37;51.23
28428;BME280;15662;49.128;8.520;2023-02-19T01:11:43;101026.28;;;15.37;51.32
28428;BME280;15662;49.128;8.520;2023-02-19T01:14:11;101014.13;;;15.29;51.40
28428;BME280;15662;49.128;8.520;2023-02-19T01:16:39;101012.25;;;15.31;51.48
28428;BME280;15662;49.128;8.520;2023-02-19T01:19:07;101020.22;;;15.32;51.34
28428;BME280;15662;49.128;8.520;2023-02-19T01:21:35;101020.47;;;15.25;51.62
28428;BME280;15662;49.128;8.520;2023-02-19T01:24:03;101023.97;;;15.27;51.69
28428;BME280;15662;49.128;8.520;2023-02-19T01:26:32;101021.56;;;15.19;51.85
28428;BME280;15662;49.128;8.520;2023-02-19T01:29:02;101034.97;;;15.17;51.72
28428;BME280;15662;49.128;8.520;2023-02-19T01:31:34;101030.25;;;14.99;52.34
28428;BME280;15662;49.128;8.520;2023-02-19T01:34:03;101029.09;;;15.08;51.84
28428;BME280;15662;49.128;8.520;2023-02-19T01:36:32;101028.75;;;15.17;51.76
28428;BME280;15662;49.128;8.520;2023-02-19T01:39:02;101030.50;;;15.18;51.88
28428;BME280;15662;49.128;8.520;2023-02-19T01:41:36;101041.13;;;15.19;52.02
28428;BME280;15662;49.128;8.520;2023-02-19T01:46:45;101027.94;;;15.15;52.06
28428;BME280;15662;49.128;8.520;2023-02-19T01:49:30;101026.75;;;14.97;52.51
28428;BME280;15662;49.128;8.520;2023-02-19T01:52:09;101020.34;;;15.03;52.10
28428;BME280;15662;49.128;8.520;2023-02-19T01:54:40;101013.88;;;15.10;52.23
28428;BME280;15662;49.128;8.520;2023-02-19T01:57:19;100996.88;;;15.12;52.11
28428;BME280;15662;49.128;8.520;2023-02-19T01:59:52;100988.03;;;15.10;52.18
28428;BME280;15662;49.128;8.520;2023-02-19T02:02:22;100982.78;;;15.07;52.21
28428;BME280;15662;49.128;8.520;2023-02-19T02:04:56;100992.75;;;15.02;52.18
28428;BME280;15662;49.128;8.520;2023-02-19T02:07:25;100998.06;;;15.04;52.14
28428;BME280;15662;49.128;8.520;2023-02-19T02:10:11;100999.19;;;14.96;52.35
28428;BME280;15662;49.128;8.520;2023-02-19T02:12:55;101016.91;;;14.99;52.18
28428;BME280;15662;49.128;8.520;2023-02-19T02:15:33;101000.13;;;14.95;52.33
28428;BME280;15662;49.128;8.520;2023-02-19T02:31:03;100981.00;;;14.83;52.56
28428;BME280;15662;49.128;8.520;2023-02-19T02:33:43;100984.47;;;14.85;52.53
28428;BME280;15662;49.128;8.520;2023-02-19T02:36:37;100991.47;;;14.87;52.54
28428;BME280;15662;49.128;8.520;2023-02-19T02:39:10;100974.88;;;14.79;52.46
28428;BME280;15662;49.128;8.520;2023-02-19T02:41:48;100988.00;;;14.85;52.59
28428;BME280;15662;49.128;8.520;2023-02-19T02:44:41;100995.19;;;14.83;52.57
28428;BME280;15662;49.128;8.520;2023-02-19T02:47:36;100983.81;;;14.78;52.77
28428;BME280;15662;49.128;8.520;2023-02-19T02:50:23;100987.22;;;14.82;52.66
28428;BME280;15662;49.128;8.520;2023-02-19T02:53:03;100981.94;;;14.80;52.61
28428;BME280;15662;49.128;8.520;2023-02-19T02:55:52;100973.22;;;14.75;52.91
28428;BME280;15662;49.128;8.520;2023-02-19T02:58:42;100981.28;;;14.74;52.71
28428;BME280;15662;49.128;8.520;2023-02-19T03:05:07;100964.41;;;14.73;52.86
28428;BME280;15662;49.128;8.520;2023-02-19T03:08:13;100975.16;;;14.70;52.92
28428;BME280;15662;49.128;8.520;2023-02-19T03:10:59;100973.31;;;14.72;52.92
28428;BME280;15662;49.128;8.520;2023-02-19T03:13:52;100962.91;;;14.64;53.13
28428;BME280;15662;49.128;8.520;2023-02-19T03:16:42;100971.69;;;14.68;52.99
28428;BME280;15662;49.128;8.520;2023-02-19T03:19:37;100978.66;;;14.72;53.13
28428;BME280;15662;49.128;8.520;2023-02-19T03:22:29;100967.09;;;14.71;53.04
28428;BME280;15662;49.128;8.520;2023-02-19T03:25:10;100971.44;;;14.76;53.03
28428;BME280;15662;49.128;8.520;2023-02-19T03:28:02;100973.22;;;14.75;53.00
28428;BME280;15662;49.128;8.520;2023-02-19T03:30:40;100964.41;;;14.73;52.87
28428;BME280;15662;49.128;8.520;2023-02-19T03:33:20;100973.94;;;14.80;52.93
28428;BME280;15662;49.128;8.520;2023-02-19T03:35:54;100992.63;;;14.80;53.11
28428;BME280;15662;49.128;8.520;2023-02-19T03:38:35;100995.22;;;14.82;53.10
28428;BME280;15662;49.128;8.520;2023-02-19T03:44:24;101003.28;;;14.80;53.22
28428;BME280;15662;49.128;8.520;2023-02-19T03:49:50;101005.16;;;14.78;53.34
28428;BME280;15662;49.128;8.520;2023-02-19T03:58:40;101026.69;;;14.72;53.69
28428;BME280;15662;49.128;8.520;2023-02-19T04:01:29;101015.19;;;14.70;53.89
28428;BME280;15662;49.128;8.520;2023-02-19T04:04:29;101018.69;;;14.72;53.82
28428;BME280;15662;49.128;8.520;2023-02-19T04:06:56;101007.25;;;14.68;54.17
28428;BME280;15662;49.128;8.520;2023-02-19T04:09:35;101025.88;;;14.70;54.12
28428;BME280;15662;49.128;8.520;2023-02-19T04:12:10;101016.41;;;14.60;54.58
28428;BME280;15662;49.128;8.520;2023-02-19T04:15:15;101022.84;;;14.53;54.51
28428;BME280;15662;49.128;8.520;2023-02-19T04:18:14;101040.50;;;14.57;54.53
28428;BME280;15662;49.128;8.520;2023-02-19T04:20:46;101030.78;;;14.56;54.55
28428;BME280;15662;49.128;8.520;2023-02-19T04:23:18;101029.97;;;14.54;54.68
28428;BME280;15662;49.128;8.520;2023-02-19T04:25:50;101040.63;;;14.54;54.79
28428;BME280;15662;49.128;8.520;2023-02-19T04:28:21;101029.09;;;14.53;54.87
28428;BME280;15662;49.128;8.520;2023-02-19T04:30:49;101020.25;;;14.51;54.89
28428;BME280;15662;49.128;8.520;2023-02-19T04:33:18;101024.66;;;14.52;54.82
28428;BME280;15662;49.128;8.520;2023-02-19T04:35:45;101030.84;;;14.53;54.84
28428;BME280;15662;49.128;8.520;2023-02-19T04:38:14;101035.25;;;14.55;54.69
28428;BME280;15662;49.128;8.520;2023-02-19T04:40:42;101030.91;;;14.51;54.92
28428;BME280;15662;49.128;8.520;2023-02-19T04:43:10;101038.91;;;14.51;55.23
28428;BME280;15662;49.128;8.520;2023-02-19T04:45:38;101027.69;;;14.40;55.42
28428;BME280;15662;49.128;8.520;2023-02-19T04:48:06;101048.03;;;14.42;55.65
28428;BME280;15662;49.128;8.520;2023-02-19T04:50:36;101041.16;;;14.35;55.60
28428;BME280;15662;49.128;8.520;2023-02-19T04:53:04;101040.44;;;14.30;55.63
28428;BME280;15662;49.128;8.520;2023-02-19T04:55:37;101026.25;;;14.28;55.80
28428;BME280;15662;49.128;8.520;2023-02-19T04:58:05;101043.19;;;14.27;55.82
28428;BME280;15662;49.128;8.520;2023-02-19T05:00:33;101043.22;;;14.26;55.80
28428;BME280;15662;49.128;8.520;2023-02-19T05:03:01;101033.56;;;14.22;55.90
28428;BME280;15662;49.128;8.520;2023-02-19T05:05:28;101031.84;;;14.20;55.94
28428;BME280;15662;49.128;8.520;2023-02-19T05:07:56;101031.91;;;14.17;56.22
28428;BME280;15662;49.128;8.520;2023-02-19T05:10:24;101012.44;;;14.15;56.13
28428;BME280;15662;49.128;8.520;2023-02-19T05:12:54;101023.84;;;14.20;55.89
28428;BME280;15662;49.128;8.520;2023-02-19T05:15:24;101026.63;;;14.16;56.44
28428;BME280;15662;49.128;8.520;2023-02-19T05:17:52;101032.09;;;14.11;56.74
28428;BME280;15662;49.128;8.520;2023-02-19T05:20:20;101032.47;;;13.99;56.93
28428;BME280;15662;49.128;8.520;2023-02-19T05:22:49;101041.28;;;14.01;56.91
28428;BME280;15662;49.128;8.520;2023-02-19T05:25:17;101051.97;;;14.01;57.09
28428;BME280;15662;49.128;8.520;2023-02-19T05:27:45;101041.34;;;14.00;57.08
28428;BME280;15662;49.128;8.520;2023-02-19T05:30:13;101048.31;;;14.04;57.22
28428;BME280;15662;49.128;8.520;2023-02-19T05:32:40;101049.22;;;14.03;57.03
28428;BME280;15662;49.128;8.520;2023-02-19T05:35:08;101037.66;;;14.04;57.12
28428;BME280;15662;49.128;8.520;2023-02-19T05:37:36;101041.09;;;14.09;57.02
28428;BME280;15662;49.128;8.520;2023-02-19T05:40:04;101029.50;;;14.08;57.11
28428;BME280;15662;49.128;8.520;2023-02-19T05:42:34;101026.97;;;14.05;57.28
28428;BME280;15662;49.128;8.520;2023-02-19T05:45:02;101041.94;;;14.09;57.22
28428;BME280;15662;49.128;8.520;2023-02-19T05:47:30;101017.22;;;14.04;57.22
28428;BME280;15662;49.128;8.520;2023-02-19T05:49:58;101038.44;;;14.07;57.22
28428;BME280;15662;49.128;8.520;2023-02-19T05:52:25;101038.50;;;14.06;57.21
28428;BME280;15662;49.128;8.520;2023-02-19T05:54:53;101040.41;;;14.01;57.45
28428;BME280;15662;49.128;8.520;2023-02-19T05:57:21;101036.03;;;14.00;57.39
28428;BME280;15662;49.128;8.520;2023-02-19T05:59:49;101029.94;;;13.94;57.19
28428;BME280;15662;49.128;8.520;2023-02-19T06:02:17;101028.03;;;13.98;57.52
28428;BME280;15662;49.128;8.520;2023-02-19T06:04:46;101041.34;;;14.00;57.85
28428;BME280;15662;49.128;8.520;2023-02-19T06:07:14;101038.88;;;13.92;57.65
28428;BME280;15662;49.128;8.520;2023-02-19T06:09:41;101046.88;;;13.92;57.49
28428;BME280;15662;49.128;8.520;2023-02-19T06:12:09;101037.03;;;13.96;57.80
28428;BME280;15662;49.128;8.520;2023-02-19T06:14:37;101049.59;;;13.90;57.70
28428;BME280;15662;49.128;8.520;2023-02-19T06:17:05;101057.50;;;13.93;57.65
28428;BME280;15662;49.128;8.520;2023-02-19T06:19:33;101064.59;;;13.94;57.57
28428;BME280;15662;49.128;8.520;2023-02-19T06:22:01;101064.50;;;13.98;57.69
28428;BME280;15662;49.128;8.520;2023-02-19T06:24:28;101068.16;;;13.93;57.50
28428;BME280;15662;49.128;8.520;2023-02-19T06:26:57;101084.88;;;14.00;57.46
28428;BME280;15662;49.128;8.520;2023-02-19T06:29:25;101098.09;;;14.03;57.39
28428;BME280;15662;49.128;8.520;2023-02-19T06:31:52;101088.47;;;13.99;57.52
28428;BME280;15662;49.128;8.520;2023-02-19T06:34:20;101098.13;;;14.02;57.60
28428;BME280;15662;49.128;8.520;2023-02-19T06:36:49;101097.28;;;14.01;57.52
28428;BME280;15662;49.128;8.520;2023-02-19T06:39:17;101089.47;;;13.95;57.75
28428;BME280;15662;49.128;8.520;2023-02-19T06:41:45;101113.34;;;13.98;57.75
28428;BME280;15662;49.128;8.520;2023-02-19T06:44:13;101109.03;;;13.94;57.88
28428;BME280;15662;49.128;8.520;2023-02-19T06:46:41;101122.34;;;13.94;57.94
28428;BME280;15662;49.128;8.520;2023-02-19T06:49:09;101132.13;;;13.93;58.16
28428;BME280;15662;49.128;8.520;2023-02-19T06:51:37;101126.78;;;13.93;58.03
28428;BME280;15662;49.128;8.520;2023-02-19T06:54:05;101123.34;;;13.90;58.16
28428;BME280;15662;49.128;8.520;2023-02-19T06:56:38;101141.84;;;13.96;57.98
28428;BME280;15662;49.128;8.520;2023-02-19T06:59:13;101145.44;;;13.95;58.13
28428;BME280;15662;49.128;8.520;2023-02-19T07:01:44;101153.53;;;13.90;58.37
28428;BME280;15662;49.128;8.520;2023-02-19T07:04:12;101140.13;;;13.93;58.28
28428;BME280;15662;49.128;8.520;2023-02-19T07:06:41;101143.69;;;13.94;58.24
28428;BME280;15662;49.128;8.520;2023-02-19T07:09:09;101140.09;;;13.95;58.42
28428;BME280;15662;49.128;8.520;2023-02-19T07:11:38;101147.28;;;13.91;58.52
28428;BME280;15662;49.128;8.520;2023-02-19T07:14:12;101148.09;;;13.93;58.50
28428;BME280;15662;49.128;8.520;2023-02-19T07:16:40;101147.34;;;13.88;58.63
28428;BME280;15662;49.128;8.520;2023-02-19T07:19:09;101140.34;;;13.86;58.87
28428;BME280;15662;49.128;8.520;2023-02-19T07:21:37;101132.47;;;13.81;58.62
28428;BME280;15662;49.128;8.520;2023-02-19T07:24:06;101152.75;;;13.87;58.66
28428;BME280;15662;49.128;8.520;2023-02-19T07:26:34;101150.13;;;13.85;58.89
28428;BME280;15662;49.128;8.520;2023-02-19T07:29:03;101159.81;;;13.88;58.99
28428;BME280;15662;49.128;8.520;2023-02-19T07:31:31;101157.25;;;13.85;58.99
28428;BME280;15662;49.128;8.520;2023-02-19T07:33:59;101154.66;;;13.82;58.95
28428;BME280;15662;49.128;8.520;2023-02-19T07:36:27;101166.13;;;13.85;59.33
28428;BME280;15662;49.128;8.520;2023-02-19T07:38:56;101178.47;;;13.88;59.06
28428;BME280;15662;49.128;8.520;2023-02-19T07:41:25;101169.81;;;13.80;59.01
28428;BME280;15662;49.128;8.520;2023-02-19T07:43:57;101171.34;;;13.88;59.17
28428;BME280;15662;49.128;8.520;2023-02-19T07:46:25;101171.31;;;13.90;59.16
28428;BME280;15662;49.128;8.520;2023-02-19T07:48:52;101177.47;;;13.92;59.20
28428;BME280;15662;49.128;8.520;2023-02-19T07:51:21;101174.00;;;13.88;59.13
28428;BME280;15662;49.128;8.520;2023-02-19T07:53:49;101179.31;;;13.90;59.21
28428;BME280;15662;49.128;8.520;2023-02-19T07:56:18;101199.59;;;13.96;59.11
28428;BME280;15662;49.128;8.520;2023-02-19T07:58:46;101198.84;;;13.90;59.24
28428;BME280;15662;49.128;8.520;2023-02-19T08:01:18;101192.47;;;13.96;59.04
28428;BME280;15662;49.128;8.520;2023-02-19T08:03:46;101205.75;;;13.99;58.99
28428;BME280;15662;49.128;8.520;2023-02-19T08:06:17;101207.50;;;13.99;58.83
28428;BME280;15662;49.128;8.520;2023-02-19T08:08:45;101206.38;;;14.07;58.78
28428;BME280;15662;49.128;8.520;2023-02-19T08:11:13;101203.66;;;14.10;58.74
28428;BME280;15662;49.128;8.520;2023-02-19T08:13:59;101210.59;;;14.16;58.67
28428;BME280;15662;49.128;8.520;2023-02-19T08:16:27;101221.22;;;14.17;58.58
28428;BME280;15662;49.128;8.520;2023-02-19T08:19:09;101217.78;;;14.14;58.57
28428;BME280;15662;49.128;8.520;2023-02-19T08:21:37;101223.97;;;14.14;58.55
28428;BME280;15662;49.128;8.520;2023-02-19T08:24:05;101224.84;;;14.15;58.51
28428;BME280;15662;49.128;8.520;2023-02-19T08:26:34;101223.88;;;14.19;58.54
28428;BME280;15662;49.128;8.520;2023-02-19T08:29:04;101228.28;;;14.18;58.55
28428;BME280;15662;49.128;8.520;2023-02-19T08:31:33;101229.19;;;14.19;58.53
28428;BME280;15662;49.128;8.520;2023-02-19T08:34:01;101234.34;;;14.25;58.51
28428;BME280;15662;49.128;8.520;2023-02-19T08:36:29;101215.81;;;14.20;58.45
28428;BME280;15662;49.128;8.520;2023-02-19T08:38:57;101213.91;;;14.26;58.28
28428;BME280;15662;49.128;8.520;2023-02-19T08:41:25;101220.09;;;14.26;58.34
28428;BME280;15662;49.128;8.520;2023-02-19T08:43:53;101215.63;;;14.27;58.47
28428;BME280;15662;49.128;8.520;2023-02-19T08:46:20;101217.13;;;14.37;58.37
28428;BME280;15662;49.128;8.520;2023-02-19T08:48:49;101207.34;;;14.37;58.69
28428;BME280;15662;49.128;8.520;2023-02-19T08:51:17;101212.53;;;14.42;58.58
28428;BME280;15662;49.128;8.520;2023-02-19T08:53:45;101209.84;;;14.43;58.55
28428;BME280;15662;49.128;8.520;2023-02-19T08:56:33;101196.38;;;14.48;58.50
28428;BME280;15662;49.128;8.520;2023-02-19T08:59:13;101191.19;;;14.42;58.49
28428;BME280;15662;49.128;8.520;2023-02-19T09:02:01;101184.00;;;14.45;58.28
28428;BME280;15662;49.128;8.520;2023-02-19T09:04:29;101179.44;;;14.51;58.28
28428;BME280;15662;49.128;8.520;2023-02-19T09:06:57;101173.22;;;14.50;58.11
28428;BME280;15662;49.128;8.520;2023-02-19T09:09:25;101206.09;;;14.51;58.19
28428;BME280;15662;49.128;8.520;2023-02-19T09:11:53;101199.84;;;14.52;58.21
28428;BME280;15662;49.128;8.520;2023-02-19T09:14:21;101200.63;;;14.55;58.09
28428;BME280;15662;49.128;8.520;2023-02-19T09:16:49;101211.38;;;14.52;58.07
28428;BME280;15662;49.128;8.520;2023-02-19T09:19:17;101214.94;;;14.53;57.98
28428;BME280;15662;49.128;8.520;2023-02-19T09:21:45;101219.19;;;14.60;57.77
28428;BME280;15662;49.128;8.520;2023-02-19T09:24:13;101211.25;;;14.58;57.56
28428;BME280;15662;49.128;8.520;2023-02-19T09:26:40;101233.31;;;14.63;57.47
28428;BME280;15662;49.128;8.520;2023-02-19T09:29:10;101209.53;;;14.56;57.51
28428;BME280;15662;49.128;8.520;2023-02-19T09:31:38;101218.25;;;14.61;57.44
28428;BME280;15662;49.128;8.520;2023-02-19T09:34:06;101239.44;;;14.67;57.48
28428;BME280;15662;49.128;8.520;2023-02-19T09:36:34;101247.31;;;14.71;57.41
28428;BME280;15662;49.128;8.520;2023-02-19T09:39:04;101238.34;;;14.74;57.33
28428;BME280;15662;49.128;8.520;2023-02-19T09:41:43;101256.03;;;14.77;57.17
28428;BME280;15662;49.128;8.520;2023-02-19T09:44:24;101269.19;;;14.84;57.33
28428;BME280;15662;49.128;8.520;2023-02-19T09:46:54;101270.00;;;14.86;57.33
28428;BME280;15662;49.128;8.520;2023-02-19T09:49:35;101267.94;;;14.96;56.98
28428;BME280;15662;49.128;8.520;2023-02-19T09:52:06;101279.50;;;14.96;56.80
28428;BME280;15662;49.128;8.520;2023-02-19T09:54:39;101257.22;;;14.98;56.95
28428;BME280;15662;49.128;8.520;2023-02-19T09:57:20;101274.59;;;15.12;56.48
28428;BME280;15662;49.128;8.520;2023-02-19T10:02:37;101284.50;;;15.07;56.65
28428;BME280;15662;49.128;8.520;2023-02-19T10:05:12;101296.69;;;15.17;56.33
28428;BME280;15662;49.128;8.520;2023-02-19T10:07:44;101277.00;;;15.20;55.92
28428;BME280;15662;49.128;8.520;2023-02-19T10:12:46;101288.34;;;15.28;55.68
28428;BME280;15662;49.128;8.520;2023-02-19T10:15:37;101278.59;;;15.27;55.63
28428;BME280;15662;49.128;8.520;2023-02-19T10:18:05;101283.75;;;15.32;55.74
28428;BME280;15662;49.128;8.520;2023-02-19T10:20:37;101283.69;;;15.35;55.69
28428;BME280;15662;49.128;8.520;2023-02-19T10:23:09;101280.94;;;15.38;55.58
28428;BME280;15662;49.128;8.520;2023-02-19T10:25:49;101268.44;;;15.38;55.48
28428;BME280;15662;49.128;8.520;2023-02-19T10:28:30;101278.13;;;15.41;55.39
28428;BME280;15662;49.128;8.520;2023-02-19T10:31:04;101265.84;;;15.35;55.21
28428;BME280;15662;49.128;8.520;2023-02-19T10:33:32;101273.78;;;15.38;55.50
28428;BME280;15662;49.128;8.520;2023-02-19T10:36:39;101280.81;;;15.41;55.29
28428;BME280;15662;49.128;8.520;2023-02-19T10:39:46;101291.28;;;15.48;55.30
28428;BME280;15662;49.128;8.520;2023-02-19T10:42:22;101292.78;;;15.57;55.16
28428;BME280;15662;49.128;8.520;2023-02-19T10:44:57;101287.28;;;15.63;55.16
28428;BME280;15662;49.128;8.520;2023-02-19T10:47:29;101295.94;;;15.71;54.58
28428;BME280;15662;49.128;8.520;2023-02-19T10:50:00;101297.69;;;15.72;54.71
28428;BME280;15662;49.128;8.520;2023-02-19T10:52:33;101305.41;;;15.82;54.24
28428;BME280;15662;49.128;8.520;2023-02-19T10:57:45;101308.09;;;15.80;54.56
28428;BME280;15662;49.128;8.520;2023-02-19T11:00:29;101299.63;;;15.94;54.36
28428;BME280;15662;49.128;8.520;2023-02-19T11:06:02;101313.66;;;16.00;53.66
28428;BME280;15662;49.128;8.520;2023-02-19T11:11:36;101331.41;;;16.03;54.14
28428;BME280;15662;49.128;8.520;2023-02-19T11:14:18;101321.75;;;15.99;54.12
28428;BME280;15662;49.128;8.520;2023-02-19T11:21:59;101318.34;;;15.94;54.46
28428;BME280;15662;49.128;8.520;2023-02-19T11:24:35;101316.31;;;16.02;54.36
28428;BME280;15662;49.128;8.520;2023-02-19T11:27:06;101325.06;;;16.06;54.36
28428;BME280;15662;49.128;8.520;2023-02-19T11:29:43;101323.47;;;16.02;54.31
28428;BME280;15662;49.128;8.520;2023-02-19T11:34:48;101330.44;;;16.06;54.16
28428;BME280;15662;49.128;8.520;2023-02-19T11:37:19;101348.19;;;16.08;53.89
28428;BME280;15662;49.128;8.520;2023-02-19T11:39:49;101350.06;;;16.06;53.83
28428;BME280;15662;49.128;8.520;2023-02-19T11:42:43;101349.94;;;16.09;53.62
28428;BME280;15662;49.128;8.520;2023-02-19T11:53:51;101344.13;;;15.96;53.91
28428;BME280;15662;49.128;8.520;2023-02-19T11:56:35;101352.09;;;15.98;53.92
28428;BME280;15662;49.128;8.520;2023-02-19T11:59:19;101354.75;;;15.98;53.87
28428;BME280;15662;49.128;8.520;2023-02-19T12:02:24;101348.63;;;15.94;54.00
28428;BME280;15662;49.128;8.520;2023-02-19T12:05:20;101349.72;;;15.89;54.11
28428;BME280;15662;49.128;8.520;2023-02-19T12:11:32;101333.88;;;15.83;54.77
28428;BME280;15662;49.128;8.520;2023-02-19T12:23:54;101331.34;;;15.78;55.39
28428;BME280;15662;49.128;8.520;2023-02-19T12:29:40;101329.19;;;15.89;55.73
28428;BME280;15662;49.128;8.520;2023-02-19T12:35:13;101326.06;;;16.03;55.71
28428;BME280;15662;49.128;8.520;2023-02-19T12:38:20;101318.72;;;16.10;55.77
28428;BME280;15662;49.128;8.520;2023-02-19T12:41:03;101322.97;;;16.15;55.71
28428;BME280;15662;49.128;8.520;2023-02-19T12:43:51;101327.00;;;16.29;55.74
28428;BME280;15662;49.128;8.520;2023-02-19T12:46:28;101336.50;;;16.37;55.78
28428;BME280;15662;49.128;8.520;2023-02-19T12:49:08;101343.38;;;16.44;55.54
28428;BME280;15662;49.128;8.520;2023-02-19T12:51:48;101321.97;;;16.44;55.58
28428;BME280;15662;49.128;8.520;2023-02-19T12:54:36;101338.59;;;16.54;55.64
28428;BME280;15662;49.128;8.520;2023-02-19T13:03:12;101335.31;;;16.72;55.07
28428;BME280;15662;49.128;8.520;2023-02-19T13:06:13;101322.63;;;16.77;54.91
28428;BME280;15662;49.128;8.520;2023-02-19T13:11:40;101325.91;;;16.86;54.88
28428;BME280;15662;49.128;8.520;2023-02-19T13:16:59;101318.84;;;16.83;54.15
28428;BME280;15662;49.128;8.520;2023-02-19T13:19:29;101321.66;;;16.80;54.21
28428;BME280;15662;49.128;8.520;2023-02-19T13:22:23;101323.44;;;16.80;53.79
28428;BME280;15662;49.128;8.520;2023-02-19T13:25:13;101326.69;;;16.63;53.72
28428;BME280;15662;49.128;8.520;2023-02-19T13:28:04;101320.25;;;16.68;53.57
28428;BME280;15662;49.128;8.520;2023-02-19T13:36:24;101304.69;;;16.80;53.56
28428;BME280;15662;49.128;8.520;2023-02-19T13:38:55;101310.97;;;16.79;53.86
28428;BME280;15662;49.128;8.520;2023-02-19T13:41:38;101318.34;;;16.97;53.43
28428;BME280;15662;49.128;8.520;2023-02-19T13:44:17;101317.22;;;17.02;53.17
28428;BME280;15662;49.128;8.520;2023-02-19T13:46:48;101317.31;;;17.01;53.15
28428;BME280;15662;49.128;8.520;2023-02-19T13:54:33;101298.31;;;17.07;52.66
28428;BME280;15662;49.128;8.520;2023-02-19T13:59:50;101287.69;;;17.04;52.58
28428;BME280;15662;49.128;8.520;2023-02-19T14:05:10;101289.41;;;17.07;51.92
28428;BME280;15662;49.128;8.520;2023-02-19T14:07:53;101292.09;;;17.07;52.12
28428;BME280;15662;49.128;8.520;2023-02-19T14:10:55;101287.44;;;17.12;52.06
28428;BME280;15662;49.128;8.520;2023-02-19T14:22:44;101283.03;;;17.33;51.27
28428;BME280;15662;49.128;8.520;2023-02-19T14:24:53;101287.34;;;17.37;51.25
28428;BME280;15662;49.128;8.520;2023-02-19T14:27:21;101304.81;;;17.47;51.30
28428;BME280;15662;49.128;8.520;2023-02-19T14:29:49;101296.66;;;17.50;50.80
28428;BME280;15662;49.128;8.520;2023-02-19T14:32:18;101301.16;;;17.49;50.78
28428;BME280;15662;49.128;8.520;2023-02-19T14:34:47;101305.69;;;17.47;50.62
28428;BME280;15662;49.128;8.520;2023-02-19T14:37:20;101314.41;;;17.52;50.68
28428;BME280;15662;49.128;8.520;2023-02-19T14:39:49;101320.53;;;17.56;50.64
28428;BME280;15662;49.128;8.520;2023-02-19T14:42:24;101313.34;;;17.57;50.46
28428;BME280;15662;49.128;8.520;2023-02-19T14:45:04;101328.50;;;17.58;50.47
28428;BME280;15662;49.128;8.520;2023-02-19T14:47:34;101328.50;;;17.58;50.36
28428;BME280;15662;49.128;8.520;2023-02-19T14:50:19;101344.41;;;17.62;50.24
28428;BME280;15662;49.128;8.520;2023-02-19T14:52:53;101340.94;;;17.60;50.07
28428;BME280;15662;49.128;8.520;2023-02-19T14:55:35;101342.75;;;17.60;49.88
28428;BME280;15662;49.128;8.520;2023-02-19T14:58:51;101340.06;;;17.60;50.00
28428;BME280;15662;49.128;8.520;2023-02-19T15:01:27;101336.78;;;17.51;49.81
28428;BME280;15662;49.128;8.520;2023-02-19T15:03:55;101332.31;;;17.52;49.98
28428;BME280;15662;49.128;8.520;2023-02-19T15:06:24;101343.03;;;17.52;49.91
28428;BME280;15662;49.128;8.520;2023-02-19T15:08:58;101354.59;;;17.54;49.75
28428;BME280;15662;49.128;8.520;2023-02-19T15:11:29;101353.88;;;17.49;49.66
28428;BME280;15662;49.128;8.520;2023-02-19T15:14:05;101361.88;;;17.50;49.46
28428;BME280;15662;49.128;8.520;2023-02-19T15:16:34;101370.00;;;17.47;49.65
28428;BME280;15662;49.128;8.520;2023-02-19T15:19:07;101362.97;;;17.45;49.44
28428;BME280;15662;49.128;8.520;2023-02-19T15:21:39;101361.34;;;17.41;49.39
28428;BME280;15662;49.128;8.520;2023-02-19T15:24:14;101378.34;;;17.40;49.43